createdAt,value
2023-04-08T00:01:01.766Z,101166.31
2023-04-08T00:03:28.794Z,101155.22
2023-04-08T00:05:55.783Z,101160.06
2023-04-08T00:08:22.615Z,101152.56
2023-04-08T00:10:49.675Z,101154.44
2023-04-08T00:13:16.560Z,101155.19
2023-04-08T00:15:43.485Z,101154.00
2023-04-08T00:18:10.573Z,101157.56
2023-04-08T00:20:37.508Z,101148.28
2023-04-08T00:23:04.390Z,101155.53
2023-04-08T00:25:31.522Z,101157.56
2023-04-08T00:27:58.461Z,101153.44
2023-04-08T00:30:27.465Z,101155.94
2023-04-08T00:32:55.601Z,101154.44
2023-04-08T00:35:22.577Z,101155.84
2023-04-08T00:37:49.960Z,101161.47
2023-04-08T00:40:17.127Z,101157.16
2023-04-08T00:42:44.252Z,101159.81
2023-04-08T00:45:11.450Z,101162.81
2023-04-08T00:47:38.362Z,101152.88
2023-04-08T00:50:07.423Z,101157.72
2023-04-08T00:52:34.347Z,101153.78
2023-04-08T00:55:01.303Z,101155.06
2023-04-08T00:57:28.449Z,101154.66
2023-04-08T00:59:55.304Z,101159.97
2023-04-08T01:02:27.226Z,101153.66
2023-04-08T01:04:57.362Z,101156.22
2023-04-08T01:07:29.406Z,101151.56
2023-04-08T01:09:57.769Z,101153.56
2023-04-08T01:12:29.246Z,101143.47
2023-04-08T01:15:03.120Z,101147.34
2023-04-08T01:17:31.102Z,101150.84
2023-04-08T01:19:59.669Z,101146.59
2023-04-08T01:22:35.704Z,101157.84
2023-04-08T01:25:08.198Z,101152.81
2023-04-08T01:27:36.192Z,101158.38
2023-04-08T01:30:04.809Z,101147.81
2023-04-08T01:32:32.617Z,101146.84
2023-04-08T01:35:01.008Z,101144.59
2023-04-08T01:37:29.743Z,101143.50
2023-04-08T01:39:56.980Z,101143.34
2023-04-08T01:42:25.794Z,101141.34
2023-04-08T01:44:55.579Z,101143.88
2023-04-08T01:47:23.168Z,101143.03
2023-04-08T01:49:50.959Z,101137.31
2023-04-08T01:52:20.263Z,101137.38
2023-04-08T01:54:47.719Z,101139.03
2023-04-08T01:57:24.969Z,101148.34
2023-04-08T01:59:52.678Z,101137.91
2023-04-08T02:02:25.079Z,101140.53
2023-04-08T02:04:52.269Z,101132.28
2023-04-08T02:07:19.425Z,101143.53
2023-04-08T02:09:46.379Z,101144.13
2023-04-08T02:12:13.265Z,101148.00
2023-04-08T02:14:40.680Z,101146.28
2023-04-08T02:17:07.690Z,101155.53
2023-04-08T02:19:43.755Z,101158.13
2023-04-08T02:22:12.943Z,101166.03
2023-04-08T02:24:41.048Z,101161.94
2023-04-08T02:27:08.917Z,101163.72
2023-04-08T02:29:36.931Z,101164.56
2023-04-08T02:32:05.600Z,101174.06
2023-04-08T02:34:32.829Z,101171.53
2023-04-08T02:37:02.503Z,101175.16
2023-04-08T02:39:33.112Z,101166.34
2023-04-08T02:42:00.092Z,101168.94
2023-04-08T02:44:26.966Z,101163.34
2023-04-08T02:46:54.420Z,101168.53
2023-04-08T02:49:21.470Z,101168.50
2023-04-08T02:51:48.332Z,101173.53
2023-04-08T02:54:15.641Z,101188.25
2023-04-08T02:56:42.727Z,101181.28
2023-04-08T02:59:09.596Z,101175.78
2023-04-08T03:01:36.593Z,101175.56
2023-04-08T03:04:03.628Z,101183.50
2023-04-08T03:06:31.637Z,101182.78
2023-04-08T03:08:58.611Z,101181.03
2023-04-08T03:11:26.270Z,101189.25
2023-04-08T03:13:53.154Z,101182.50
2023-04-08T03:16:20.086Z,101182.50
2023-04-08T03:18:47.001Z,101186.53
2023-04-08T03:21:13.841Z,101179.91
2023-04-08T03:23:40.883Z,101186.38
2023-04-08T03:26:07.815Z,101183.88
2023-04-08T03:28:34.664Z,101191.97
2023-04-08T03:31:03.071Z,101193.44
2023-04-08T03:33:29.937Z,101196.56
2023-04-08T03:35:56.924Z,101192.91
2023-04-08T03:38:23.859Z,101202.38
2023-04-08T03:40:50.914Z,101194.03
2023-04-08T03:43:19.725Z,101198.78
2023-04-08T03:45:46.579Z,101199.88
2023-04-08T03:48:13.428Z,101211.34
2023-04-08T03:50:40.295Z,101201.75
2023-04-08T03:53:07.236Z,101213.50
2023-04-08T03:55:34.062Z,101219.47
2023-04-08T03:58:00.974Z,101218.59
2023-04-08T04:00:27.859Z,101221.19
2023-04-08T04:02:56.231Z,101214.72
2023-04-08T04:05:23.415Z,101219.22
2023-04-08T04:07:50.383Z,101217.84
2023-04-08T04:10:17.372Z,101220.34
2023-04-08T04:12:45.140Z,101226.09
2023-04-08T04:15:12.138Z,101228.25
2023-04-08T04:17:39.072Z,101223.47
2023-04-08T04:20:06.691Z,101231.53
2023-04-08T04:22:33.663Z,101226.63
2023-04-08T04:25:00.647Z,101226.00
2023-04-08T04:27:27.718Z,101229.16
2023-04-08T04:29:54.635Z,101234.13
2023-04-08T04:32:21.483Z,101233.78
2023-04-08T04:34:48.384Z,101238.84
2023-04-08T04:37:15.228Z,101228.53
2023-04-08T04:39:42.260Z,101229.13
2023-04-08T04:42:09.226Z,101236.03
2023-04-08T04:44:36.174Z,101233.50
2023-04-08T04:47:03.117Z,101222.53
2023-04-08T04:49:29.932Z,101226.47
2023-04-08T04:51:56.841Z,101227.63
2023-04-08T04:54:23.644Z,101227.13
2023-04-08T04:56:50.635Z,101226.25
2023-04-08T04:59:17.486Z,101226.59
2023-04-08T05:01:44.419Z,101232.63
2023-04-08T05:04:11.403Z,101231.91
2023-04-08T05:06:38.254Z,101240.56
2023-04-08T05:09:05.243Z,101238.16
2023-04-08T05:11:32.106Z,101238.22
2023-04-08T05:13:59.027Z,101239.13
2023-04-08T05:16:25.954Z,101234.69
2023-04-08T05:18:53.064Z,101241.59
2023-04-08T05:21:20.116Z,101236.91
2023-04-08T05:23:47.104Z,101229.84
2023-04-08T05:26:15.807Z,101230.34
2023-04-08T05:28:43.166Z,101234.75
2023-04-08T05:31:10.212Z,101246.16
2023-04-08T05:33:37.084Z,101238.38
2023-04-08T05:36:04.116Z,101240.50
2023-04-08T05:38:31.078Z,101242.66
2023-04-08T05:40:57.937Z,101243.94
2023-04-08T05:43:24.946Z,101243.19
2023-04-08T05:45:51.818Z,101249.00
2023-04-08T05:48:18.654Z,101256.66
2023-04-08T05:50:45.691Z,101251.41
2023-04-08T05:53:12.884Z,101248.78
2023-04-08T05:55:40.235Z,101240.88
2023-04-08T05:58:07.358Z,101243.38
2023-04-08T06:00:34.248Z,101245.03
2023-04-08T06:03:01.609Z,101250.22
2023-04-08T06:05:28.798Z,101254.47
2023-04-08T06:07:55.665Z,101250.00
2023-04-08T06:10:22.589Z,101243.03
2023-04-08T06:12:49.428Z,101242.16
2023-04-08T06:15:16.925Z,101242.25
2023-04-08T06:17:43.839Z,101248.63
2023-04-08T06:20:10.993Z,101241.69
2023-04-08T06:22:38.295Z,101240.84
2023-04-08T06:25:05.485Z,101248.78
2023-04-08T06:27:32.488Z,101247.03
2023-04-08T06:29:59.345Z,101244.38
2023-04-08T06:32:26.514Z,101249.69
2023-04-08T06:34:53.411Z,101238.22
2023-04-08T06:37:20.429Z,101233.84
2023-04-08T06:39:48.778Z,101243.44
2023-04-08T06:42:15.823Z,101245.22
2023-04-08T06:45:06.805Z,101239.06
2023-04-08T06:47:33.660Z,101238.97
2023-04-08T06:50:01.041Z,101247.88
2023-04-08T06:52:28.172Z,101247.84
2023-04-08T06:54:55.100Z,101243.50
2023-04-08T06:57:21.919Z,101240.81
2023-04-08T06:59:48.762Z,101240.63
2023-04-08T07:02:16.081Z,101249.41
2023-04-08T07:04:44.268Z,101261.06
2023-04-08T07:07:12.337Z,101255.78
2023-04-08T07:09:40.180Z,101264.50
2023-04-08T07:12:07.179Z,101258.44
2023-04-08T07:14:34.050Z,101261.84
2023-04-08T07:17:00.966Z,101258.69
2023-04-08T07:19:27.842Z,101266.03
2023-04-08T07:21:54.866Z,101266.97
2023-04-08T07:24:21.809Z,101260.06
2023-04-08T07:26:48.742Z,101261.09
2023-04-08T07:29:16.060Z,101268.94
2023-04-08T07:31:46.012Z,101271.63
2023-04-08T07:34:12.899Z,101278.66
2023-04-08T07:36:40.967Z,101272.50
2023-04-08T07:39:07.853Z,101271.63
2023-04-08T07:41:34.738Z,101275.00
2023-04-08T07:44:02.102Z,101274.94
2023-04-08T07:46:29.028Z,101272.50
2023-04-08T07:48:56.077Z,101267.25
2023-04-08T07:51:23.280Z,101275.00
2023-04-08T07:53:50.279Z,101271.03
2023-04-08T07:56:18.684Z,101272.53
2023-04-08T07:58:46.981Z,101275.88
2023-04-08T08:01:19.048Z,101274.50
2023-04-08T08:03:48.035Z,101285.56
2023-04-08T08:06:15.595Z,101280.28
2023-04-08T08:08:42.566Z,101280.34
2023-04-08T08:11:09.479Z,101279.41
2023-04-08T08:13:36.525Z,101283.00
2023-04-08T08:16:03.647Z,101289.22
2023-04-08T08:18:30.852Z,101290.06
2023-04-08T08:20:57.700Z,101293.59
2023-04-08T08:23:24.578Z,101286.56
2023-04-08T08:25:59.341Z,101286.59
2023-04-08T08:28:26.147Z,101289.22
2023-04-08T08:30:53.048Z,101287.41
2023-04-08T08:33:19.883Z,101295.31
2023-04-08T08:35:46.745Z,101289.16
2023-04-08T08:38:14.210Z,101304.06
2023-04-08T08:40:41.305Z,101290.09
2023-04-08T08:43:09.579Z,101298.03
2023-04-08T08:45:40.988Z,101308.50
2023-04-08T08:48:11.095Z,101298.47
2023-04-08T08:50:38.151Z,101301.94
2023-04-08T08:53:05.129Z,101297.97
2023-04-08T08:55:53.201Z,101298.47
2023-04-08T08:58:20.888Z,101305.94
2023-04-08T09:00:47.823Z,101318.78
2023-04-08T09:03:17.844Z,101317.22
2023-04-08T09:06:04.107Z,101312.88
2023-04-08T09:08:34.988Z,101314.69
2023-04-08T09:11:20.486Z,101318.25
2023-04-08T09:13:47.589Z,101318.88
2023-04-08T09:16:18.173Z,101311.94
2023-04-08T09:18:47.374Z,101319.75
2023-04-08T09:21:14.986Z,101324.81
2023-04-08T09:23:46.411Z,101310.09
2023-04-08T09:26:17.788Z,101321.19
2023-04-08T09:28:57.809Z,101308.28
2023-04-08T09:31:26.042Z,101304.94
2023-04-08T09:33:53.562Z,101312.22
2023-04-08T09:36:20.607Z,101303.03
2023-04-08T09:38:47.992Z,101310.25
2023-04-08T09:41:16.438Z,101319.63
2023-04-08T09:43:49.411Z,101305.31
2023-04-08T09:46:20.660Z,101301.28
2023-04-08T09:48:55.391Z,101312.16
2023-04-08T09:51:24.341Z,101307.84
2023-04-08T09:53:57.405Z,101300.97
2023-04-08T09:56:24.922Z,101304.56
2023-04-08T09:58:52.942Z,101296.31
2023-04-08T10:01:23.064Z,101300.34
2023-04-08T10:03:52.962Z,101280.91
2023-04-08T10:06:22.227Z,101293.09
2023-04-08T10:08:49.216Z,101300.69
2023-04-08T10:11:16.879Z,101282.63
2023-04-08T10:13:44.014Z,101276.69
2023-04-08T10:16:20.952Z,101290.09
2023-04-08T10:18:49.884Z,101291.75
2023-04-08T10:21:36.238Z,101295.59
2023-04-08T10:24:06.550Z,101286.09
2023-04-08T10:26:34.813Z,101279.28
2023-04-08T10:29:21.378Z,101278.16
2023-04-08T10:31:49.139Z,101282.13
2023-04-08T10:34:26.909Z,101280.03
2023-04-08T10:36:55.564Z,101273.97
2023-04-08T10:39:22.987Z,101282.38
2023-04-08T10:41:50.770Z,101283.38
2023-04-08T10:44:21.429Z,101287.66
2023-04-08T10:46:49.273Z,101289.59
2023-04-08T10:49:17.554Z,101291.53
2023-04-08T10:51:44.968Z,101291.84
2023-04-08T10:54:13.014Z,101290.41
2023-04-08T10:56:49.874Z,101290.78
2023-04-08T10:59:17.871Z,101288.09
2023-04-08T11:01:46.417Z,101293.06
2023-04-08T11:04:14.397Z,101287.81
2023-04-08T11:06:44.965Z,101278.81
2023-04-08T11:09:12.082Z,101284.44
2023-04-08T11:11:39.105Z,101288.44
2023-04-08T11:14:06.391Z,101288.09
2023-04-08T11:16:34.096Z,101275.81
2023-04-08T11:19:02.878Z,101275.97
2023-04-08T11:21:30.652Z,101277.78
2023-04-08T11:23:57.756Z,101276.72
2023-04-08T11:26:25.802Z,101275.75
2023-04-08T11:28:52.845Z,101273.25
2023-04-08T11:31:22.740Z,101270.47
2023-04-08T11:33:53.732Z,101273.13
2023-04-08T11:36:22.122Z,101267.41
2023-04-08T11:38:49.225Z,101270.19
2023-04-08T11:41:16.840Z,101262.97
2023-04-08T11:43:55.854Z,101263.50
2023-04-08T11:46:23.232Z,101260.31
2023-04-08T11:48:59.958Z,101252.94
2023-04-08T11:51:28.032Z,101249.88
2023-04-08T11:53:56.410Z,101250.91
2023-04-08T11:56:24.301Z,101258.13
2023-04-08T11:58:51.862Z,101244.78
2023-04-08T12:01:19.365Z,101231.03
2023-04-08T12:03:59.944Z,101243.50
2023-04-08T12:06:27.817Z,101239.03
2023-04-08T12:08:55.463Z,101244.28
2023-04-08T12:11:22.495Z,101234.63
2023-04-08T12:13:53.131Z,101242.69
2023-04-08T12:16:20.766Z,101240.41
2023-04-08T12:18:47.848Z,101244.88
2023-04-08T12:21:14.790Z,101229.72
2023-04-08T12:23:41.713Z,101242.34
2023-04-08T12:26:08.866Z,101224.19
2023-04-08T12:28:36.415Z,101229.72
2023-04-08T12:31:03.884Z,101234.06
2023-04-08T12:33:30.955Z,101224.66
2023-04-08T12:36:00.877Z,101226.31
2023-04-08T12:38:27.824Z,101223.56
2023-04-08T12:40:55.395Z,101212.91
2023-04-08T12:43:23.713Z,101217.88
2023-04-08T12:45:50.888Z,101206.28
2023-04-08T12:48:18.127Z,101198.66
2023-04-08T12:50:45.119Z,101207.78
2023-04-08T12:53:12.022Z,101210.50
2023-04-08T12:55:38.894Z,101216.16
2023-04-08T12:58:06.260Z,101215.88
2023-04-08T13:00:33.336Z,101209.00
2023-04-08T13:03:00.563Z,101207.44
2023-04-08T13:05:41.921Z,101202.13
2023-04-08T13:08:09.392Z,101203.94
2023-04-08T13:10:36.292Z,101198.66
2023-04-08T13:13:03.190Z,101193.34
2023-04-08T13:15:30.082Z,101188.97
2023-04-08T13:17:56.947Z,101193.41
2023-04-08T13:20:26.071Z,101199.56
2023-04-08T13:22:53.609Z,101196.91
2023-04-08T13:25:21.100Z,101202.19
2023-04-08T13:27:48.129Z,101199.53
2023-04-08T13:30:14.985Z,101204.78
2023-04-08T13:32:41.849Z,101203.88
2023-04-08T13:35:08.898Z,101211.00
2023-04-08T13:37:36.250Z,101210.13
2023-04-08T13:40:03.552Z,101201.31
2023-04-08T13:42:33.042Z,101202.19
2023-04-08T13:45:00.237Z,101196.88
2023-04-08T13:47:29.844Z,101193.41
2023-04-08T13:49:56.773Z,101197.75
2023-04-08T13:52:23.639Z,101196.91
2023-04-08T13:54:50.500Z,101208.34
2023-04-08T13:57:17.347Z,101200.47
2023-04-08T13:59:44.905Z,101206.59
2023-04-08T14:02:11.902Z,101209.22
2023-04-08T14:04:40.082Z,101207.41
2023-04-08T14:07:07.302Z,101197.81
2023-04-08T14:09:34.248Z,101189.03
2023-04-08T14:12:01.275Z,101179.34
2023-04-08T14:14:28.206Z,101193.38
2023-04-08T14:16:55.272Z,101193.38
2023-04-08T14:19:22.191Z,101190.75
2023-04-08T14:21:49.276Z,101191.63
2023-04-08T14:24:16.374Z,101196.88
2023-04-08T14:26:43.305Z,101187.19
2023-04-08T14:29:10.355Z,101195.09
2023-04-08T14:31:37.549Z,101189.84
2023-04-08T14:34:04.945Z,101194.94
2023-04-08T14:36:33.039Z,101194.09
2023-04-08T14:39:00.260Z,101196.63
2023-04-08T14:41:27.350Z,101193.91
2023-04-08T14:43:54.315Z,101184.38
2023-04-08T14:46:21.734Z,101182.56
2023-04-08T14:48:48.873Z,101190.25
2023-04-08T14:51:15.915Z,101186.66
2023-04-08T14:53:42.770Z,101187.50
2023-04-08T14:56:09.655Z,101194.44
2023-04-08T14:58:36.604Z,101187.47
2023-04-08T15:01:03.656Z,101194.59
2023-04-08T15:03:30.674Z,101185.72
2023-04-08T15:05:57.808Z,101184.91
2023-04-08T15:08:24.765Z,101182.41
2023-04-08T15:10:51.677Z,101182.28
2023-04-08T15:13:18.536Z,101180.53
2023-04-08T15:15:45.705Z,101173.78
2023-04-08T15:18:12.648Z,101178.94
2023-04-08T15:20:39.566Z,101174.56
2023-04-08T15:23:06.893Z,101175.78
2023-04-08T15:25:33.851Z,101177.53
2023-04-08T15:28:02.808Z,101181.78
2023-04-08T15:30:35.251Z,101173.84
2023-04-08T15:33:05.813Z,101173.91
2023-04-08T15:35:33.733Z,101184.28
2023-04-08T15:38:00.887Z,101172.59
2023-04-08T15:40:27.869Z,101183.88
2023-04-08T15:42:54.780Z,101183.00
2023-04-08T15:45:22.441Z,101192.56
2023-04-08T15:47:49.453Z,101185.47
2023-04-08T15:50:17.629Z,101193.41
2023-04-08T15:52:44.713Z,101188.50
2023-04-08T15:55:11.902Z,101193.66
2023-04-08T15:57:38.809Z,101193.56
2023-04-08T16:00:11.793Z,101196.78
2023-04-08T16:02:42.445Z,101199.34
2023-04-08T16:05:09.701Z,101200.34
2023-04-08T16:07:37.529Z,101205.59
2023-04-08T16:10:04.746Z,101212.59
2023-04-08T16:12:32.515Z,101208.88
2023-04-08T16:14:59.398Z,101215.00
2023-04-08T16:17:27.581Z,101203.91
2023-04-08T16:19:54.465Z,101198.56
2023-04-08T16:22:21.764Z,101209.03
2023-04-08T16:24:48.831Z,101222.09
2023-04-08T16:27:15.726Z,101216.94
2023-04-08T16:29:43.048Z,101221.94
2023-04-08T16:32:09.914Z,101224.50
2023-04-08T16:34:36.873Z,101223.72
2023-04-08T16:37:03.821Z,101227.19
2023-04-08T16:39:30.646Z,101226.34
2023-04-08T16:41:57.625Z,101231.41
2023-04-08T16:44:24.553Z,101236.56
2023-04-08T16:46:51.536Z,101235.81
2023-04-08T16:49:18.589Z,101235.72
2023-04-08T16:51:45.622Z,101235.63
2023-04-08T16:54:12.665Z,101242.75
2023-04-08T16:56:44.427Z,101246.53
2023-04-08T16:59:12.059Z,101240.25
2023-04-08T17:01:39.039Z,101240.06
2023-04-08T17:04:06.045Z,101240.91
2023-04-08T17:06:35.794Z,101247.69
2023-04-08T17:09:04.027Z,101242.31
2023-04-08T17:11:31.221Z,101244.06
2023-04-08T17:13:58.400Z,101241.34
2023-04-08T17:16:25.413Z,101239.47
2023-04-08T17:18:52.541Z,101251.72
2023-04-08T17:21:20.342Z,101247.50
2023-04-08T17:23:47.398Z,101250.97
2023-04-08T17:26:14.304Z,101253.50
2023-04-08T17:28:41.180Z,101262.34
2023-04-08T17:31:08.094Z,101261.47
2023-04-08T17:33:35.014Z,101258.88
2023-04-08T17:36:01.944Z,101264.50
2023-04-08T17:38:28.991Z,101267.13
2023-04-08T17:40:55.875Z,101266.19
2023-04-08T17:43:22.800Z,101277.66
2023-04-08T17:45:50.696Z,101275.88
2023-04-08T17:48:18.853Z,101274.22
2023-04-08T17:50:45.843Z,101282.16
2023-04-08T17:53:12.717Z,101284.19
2023-04-08T17:55:39.607Z,101284.34
2023-04-08T17:58:06.800Z,101276.88
2023-04-08T18:00:33.781Z,101278.06
2023-04-08T18:03:00.860Z,101287.81
2023-04-08T18:05:29.130Z,101289.59
2023-04-08T18:07:56.078Z,101296.78
2023-04-08T18:10:24.719Z,101297.66
2023-04-08T18:13:03.699Z,101289.75
2023-04-08T18:15:37.888Z,101295.09
2023-04-08T18:18:04.796Z,101292.50
2023-04-08T18:20:35.188Z,101295.06
2023-04-08T18:23:04.455Z,101302.81
2023-04-08T18:25:31.789Z,101310.47
2023-04-08T18:27:59.376Z,101307.88
2023-04-08T18:30:26.631Z,101312.97
2023-04-08T18:32:54.575Z,101306.78
2023-04-08T18:35:21.577Z,101304.25
2023-04-08T18:37:48.500Z,101310.28
2023-04-08T18:40:15.659Z,101314.47
2023-04-08T18:42:42.544Z,101317.97
2023-04-08T18:45:09.906Z,101315.31
2023-04-08T18:47:37.803Z,101311.63
2023-04-08T18:50:04.964Z,101315.19
2023-04-08T18:52:32.429Z,101312.63
2023-04-08T18:55:02.948Z,101316.06
2023-04-08T18:57:29.856Z,101309.88
2023-04-08T18:59:56.737Z,101317.06
2023-04-08T19:02:23.775Z,101311.88
2023-04-08T19:04:50.812Z,101308.41
2023-04-08T19:07:18.048Z,101308.44
2023-04-08T19:09:45.008Z,101303.19
2023-04-08T19:12:11.917Z,101305.81
2023-04-08T19:14:39.678Z,101311.91
2023-04-08T19:17:06.847Z,101313.72
2023-04-08T19:19:33.726Z,101305.00
2023-04-08T19:22:02.899Z,101311.97
2023-04-08T19:24:29.861Z,101318.78
2023-04-08T19:26:56.757Z,101318.91
2023-04-08T19:29:24.576Z,101311.91
2023-04-08T19:31:51.511Z,101312.63
2023-04-08T19:34:18.494Z,101312.56
2023-04-08T19:36:45.646Z,101309.88
2023-04-08T19:39:12.568Z,101311.56
2023-04-08T19:41:39.537Z,101303.38
2023-04-08T19:44:06.730Z,101305.88
2023-04-08T19:46:34.160Z,101307.88
2023-04-08T19:49:01.126Z,101308.03
2023-04-08T19:51:29.408Z,101302.78
2023-04-08T19:53:56.436Z,101301.03
2023-04-08T19:56:23.420Z,101308.44
2023-04-08T19:58:50.550Z,101306.13
2023-04-08T20:01:18.360Z,101305.97
2023-04-08T20:03:52.557Z,101302.13
2023-04-08T20:06:20.045Z,101300.13
2023-04-08T20:08:47.081Z,101300.75
2023-04-08T20:11:14.220Z,101303.44
2023-04-08T20:13:41.171Z,101304.22
2023-04-08T20:16:08.320Z,101306.25
2023-04-08T20:18:35.322Z,101302.13
2023-04-08T20:21:02.223Z,101302.91
2023-04-08T20:23:29.221Z,101301.50
2023-04-08T20:25:56.846Z,101306.94
2023-04-08T20:28:23.855Z,101301.59
2023-04-08T20:30:51.804Z,101307.00
2023-04-08T20:33:19.369Z,101303.28
2023-04-08T20:35:47.133Z,101307.53
2023-04-08T20:38:14.713Z,101300.34
2023-04-08T20:40:44.586Z,101307.31
2023-04-08T20:43:11.558Z,101304.84
2023-04-08T20:45:38.438Z,101302.19
2023-04-08T20:48:05.837Z,101307.66
2023-04-08T20:50:33.150Z,101302.41
2023-04-08T20:53:00.065Z,101305.88
2023-04-08T20:55:26.922Z,101297.03
2023-04-08T20:57:53.763Z,101303.25
2023-04-08T21:00:20.719Z,101302.41
2023-04-08T21:02:48.143Z,101304.34
2023-04-08T21:05:15.634Z,101305.38
2023-04-08T21:07:44.888Z,101302.97
2023-04-08T21:10:13.079Z,101303.94
2023-04-08T21:12:40.022Z,101311.06
2023-04-08T21:15:07.172Z,101311.81
2023-04-08T21:17:34.316Z,101309.91
2023-04-08T21:20:01.233Z,101309.56
2023-04-08T21:22:28.908Z,101308.47
2023-04-08T21:24:57.107Z,101308.28
2023-04-08T21:27:23.957Z,101315.28
2023-04-08T21:29:51.710Z,101314.31
2023-04-08T21:32:18.530Z,101301.31
2023-04-08T21:34:46.393Z,101309.91
2023-04-08T21:37:13.286Z,101313.56
2023-04-08T21:39:40.121Z,101302.72
2023-04-08T21:42:07.064Z,101309.22
2023-04-08T21:44:34.102Z,101309.50
2023-04-08T21:47:02.060Z,101312.88
2023-04-08T21:49:32.472Z,101306.88
2023-04-08T21:51:59.444Z,101318.63
2023-04-08T21:54:26.274Z,101316.13
2023-04-08T21:56:53.214Z,101319.00
2023-04-08T21:59:20.188Z,101310.19
2023-04-08T22:01:47.257Z,101316.88
2023-04-08T22:04:14.527Z,101315.84
2023-04-08T22:06:41.830Z,101318.34
2023-04-08T22:09:08.689Z,101318.63
2023-04-08T22:11:35.657Z,101311.97
2023-04-08T22:14:02.574Z,101316.78
2023-04-08T22:16:29.544Z,101309.50
2023-04-08T22:18:56.478Z,101320.19
2023-04-08T22:21:23.872Z,101319.28
2023-04-08T22:23:50.794Z,101310.88
2023-04-08T22:26:17.919Z,101316.88
2023-04-08T22:28:44.785Z,101316.22
2023-04-08T22:31:12.502Z,101306.19
2023-04-08T22:33:39.760Z,101314.78
2023-04-08T22:36:06.718Z,101317.13
2023-04-08T22:38:33.694Z,101312.31
2023-04-08T22:41:00.925Z,101316.78
2023-04-08T22:43:27.826Z,101320.09
2023-04-08T22:45:54.794Z,101317.94
2023-04-08T22:48:22.025Z,101315.56
2023-04-08T22:50:48.897Z,101311.97
2023-04-08T22:53:15.928Z,101309.97
2023-04-08T22:55:42.800Z,101309.19
2023-04-08T22:58:09.753Z,101307.59
2023-04-08T23:00:36.640Z,101306.91
2023-04-08T23:03:05.024Z,101300.50
2023-04-08T23:05:32.094Z,101304.56
2023-04-08T23:07:58.954Z,101299.16
2023-04-08T23:10:25.839Z,101303.66
2023-04-08T23:12:52.731Z,101300.16
2023-04-08T23:15:19.748Z,101302.25
2023-04-08T23:17:46.685Z,101297.88
2023-04-08T23:20:13.695Z,101290.41
2023-04-08T23:22:40.836Z,101294.94
2023-04-08T23:25:08.120Z,101296.28
2023-04-08T23:27:35.043Z,101303.72
2023-04-08T23:30:05.690Z,101296.78
2023-04-08T23:32:33.084Z,101290.03
2023-04-08T23:35:00.554Z,101289.41
2023-04-08T23:37:27.404Z,101295.94
2023-04-08T23:39:54.443Z,101296.72
2023-04-08T23:42:21.386Z,101308.13
2023-04-08T23:44:48.293Z,101308.88
2023-04-08T23:47:15.144Z,101303.19
2023-04-08T23:49:42.062Z,101299.66
2023-04-08T23:52:08.941Z,101302.94
2023-04-08T23:54:36.057Z,101309.19
2023-04-08T23:57:02.980Z,101308.69
2023-04-08T23:59:29.907Z,101304.75
